UPS36 VHHH-OMDB
Flight info
| Callsign | UPS36 |
|---|---|
| Flight time | N/A |
| Altitude | 35000 |
| Route | PECAN3A PECAN V10 SIKOU/K0935S0980 A202 ASSAD/K0937F320 A206 NALAO/N0506F320 A206 LPB B465 CEA A791 JJS/N0501F340 A791 BPL L639 RASKI L301 RAGMA N571 VUSET A454 PASOV B540 KUPMA/N0469F240 B540 MIVEK P574 IMPED IMPED3C |
| Aircraft | B77L/H-SDE2E3FGHIJ3J4J5M1RWXYZ/LB1D1 |
Departure
| Time | 2026-05-08 05:41 |
|---|---|
| Airport | Hong Kong International Airport (VHHH) |
Arrival
| Time | N/A |
|---|---|
| Airport | Dubai International Airport (OMDB) |
| Time | Latitude | Longitude | Altitude | Speed | Heading |
|---|---|---|---|---|---|
| 2026-05-08 05:41 | 22.17623 | 114.08757 | 9147 ft | 292 kts | 166° |
| 2026-05-08 05:41 | 22.15817 | 114.09768 | 9586 ft | 299 kts | 136° |
| 2026-05-08 05:41 | 22.14606 | 114.11590 | 10089 ft | 301 kts | 118° |
| 2026-05-08 05:42 | 22.13631 | 114.13652 | 10322 ft | 318 kts | 117° |
| 2026-05-08 05:42 | 22.12616 | 114.15834 | 10465 ft | 337 kts | 117° |
| 2026-05-08 05:42 | 22.11532 | 114.18162 | 10613 ft | 357 kts | 117° |
| 2026-05-08 05:42 | 22.10379 | 114.20612 | 10769 ft | 376 kts | 118° |
| 2026-05-08 05:43 | 22.09168 | 114.23164 | 11099 ft | 388 kts | 118° |
| 2026-05-08 05:43 | 22.07857 | 114.25736 | 11484 ft | 394 kts | 126° |
| 2026-05-08 05:43 | 22.05919 | 114.27824 | 11913 ft | 395 kts | 147° |
| 2026-05-08 05:43 | 22.03629 | 114.29479 | 12423 ft | 400 kts | 147° |
| 2026-05-08 05:44 | 22.01342 | 114.31216 | 13035 ft | 404 kts | 146° |
| 2026-05-08 05:44 | 21.98935 | 114.32738 | 13472 ft | 404 kts | 162° |
| 2026-05-08 05:44 | 21.96177 | 114.33241 | 13926 ft | 404 kts | 184° |
| 2026-05-08 05:44 | 21.93430 | 114.32711 | 14522 ft | 401 kts | 200° |
| 2026-05-08 05:45 | 21.90931 | 114.31423 | 15102 ft | 398 kts | 217° |
| 2026-05-08 05:45 | 21.88730 | 114.29611 | 15504 ft | 402 kts | 220° |
| 2026-05-08 05:45 | 21.86548 | 114.27699 | 15964 ft | 406 kts | 221° |
| 2026-05-08 05:45 | 21.84354 | 114.25764 | 16508 ft | 409 kts | 221° |
| 2026-05-08 05:46 | 21.82138 | 114.23827 | 17046 ft | 412 kts | 220° |
| 2026-05-08 05:46 | 21.79926 | 114.21915 | 17557 ft | 415 kts | 220° |
| 2026-05-08 05:46 | 21.77657 | 114.19972 | 18068 ft | 418 kts | 220° |
| 2026-05-08 05:46 | 21.75368 | 114.18023 | 18523 ft | 422 kts | 220° |
| 2026-05-08 05:47 | 21.73056 | 114.16059 | 18930 ft | 425 kts | 220° |
| 2026-05-08 05:47 | 21.70728 | 114.14083 | 19353 ft | 428 kts | 220° |
| 2026-05-08 05:47 | 21.68382 | 114.12092 | 19762 ft | 431 kts | 219° |
| 2026-05-08 05:47 | 21.66017 | 114.10091 | 20168 ft | 432 kts | 218° |
| 2026-05-08 05:48 | 21.63423 | 114.08430 | 20433 ft | 441 kts | 201° |
| 2026-05-08 05:48 | 21.60449 | 114.07610 | 20708 ft | 444 kts | 193° |
| 2026-05-08 05:48 | 21.57411 | 114.06929 | 21052 ft | 447 kts | 193° |
| 2026-05-08 05:48 | 21.54366 | 114.06199 | 21492 ft | 449 kts | 194° |
| 2026-05-08 05:49 | 21.51320 | 114.05428 | 21939 ft | 451 kts | 194° |
| 2026-05-08 05:49 | 21.48266 | 114.04636 | 22329 ft | 453 kts | 194° |
| 2026-05-08 05:49 | 21.45193 | 114.03830 | 22695 ft | 455 kts | 196° |
| 2026-05-08 05:49 | 21.42245 | 114.02602 | 22966 ft | 456 kts | 212° |
| 2026-05-08 05:50 | 21.39593 | 114.00732 | 23230 ft | 458 kts | 215° |
| 2026-05-08 05:50 | 21.36963 | 113.98768 | 23552 ft | 462 kts | 216° |
| 2026-05-08 05:50 | 21.34316 | 113.96806 | 23880 ft | 463 kts | 215° |
| 2026-05-08 05:50 | 21.31646 | 113.94862 | 24242 ft | 464 kts | 214° |
| 2026-05-08 05:51 | 21.28957 | 113.92940 | 24593 ft | 465 kts | 214° |
| 2026-05-08 05:51 | 21.26250 | 113.91025 | 24926 ft | 467 kts | 214° |
| 2026-05-08 05:51 | 21.23531 | 113.89111 | 25212 ft | 469 kts | 214° |
| 2026-05-08 05:51 | 21.20801 | 113.87191 | 25518 ft | 471 kts | 214° |
| 2026-05-08 05:52 | 21.18057 | 113.85259 | 25816 ft | 473 kts | 214° |
| 2026-05-08 05:52 | 21.15302 | 113.83319 | 26121 ft | 475 kts | 214° |
| 2026-05-08 05:52 | 21.12551 | 113.81360 | 26401 ft | 474 kts | 217° |
| 2026-05-08 05:52 | 21.10076 | 113.79011 | 26616 ft | 477 kts | 229° |
| 2026-05-08 05:53 | 21.08095 | 113.76164 | 26862 ft | 478 kts | 239° |
| 2026-05-08 05:53 | 21.06612 | 113.72984 | 27159 ft | 477 kts | 250° |
| 2026-05-08 05:53 | 21.05534 | 113.69630 | 27424 ft | 478 kts | 252° |
| 2026-05-08 05:53 | 21.04484 | 113.66241 | 27672 ft | 481 kts | 252° |
| 2026-05-08 05:54 | 21.03427 | 113.62832 | 27871 ft | 484 kts | 252° |
| 2026-05-08 05:54 | 21.02352 | 113.59405 | 28085 ft | 487 kts | 251° |
| 2026-05-08 05:54 | 21.01260 | 113.55968 | 28365 ft | 488 kts | 251° |
| 2026-05-08 05:54 | 21.00153 | 113.52528 | 28644 ft | 489 kts | 251° |
| 2026-05-08 05:55 | 20.99049 | 113.49119 | 28889 ft | 491 kts | 251° |
| 2026-05-08 05:55 | 20.97924 | 113.45662 | 29120 ft | 493 kts | 251° |
| 2026-05-08 05:55 | 20.96793 | 113.42191 | 29334 ft | 495 kts | 251° |
| 2026-05-08 05:55 | 20.95657 | 113.38713 | 29543 ft | 496 kts | 251° |
| 2026-05-08 05:56 | 20.94521 | 113.35229 | 29793 ft | 497 kts | 251° |
| 2026-05-08 05:56 | 20.93380 | 113.31733 | 30063 ft | 497 kts | 251° |
| 2026-05-08 05:56 | 20.92242 | 113.28248 | 30336 ft | 496 kts | 251° |
| 2026-05-08 05:56 | 20.91106 | 113.24771 | 30618 ft | 495 kts | 251° |
| 2026-05-08 05:57 | 20.89971 | 113.21299 | 30871 ft | 495 kts | 252° |
| 2026-05-08 05:57 | 20.88833 | 113.17821 | 31119 ft | 495 kts | 252° |
| 2026-05-08 05:57 | 20.87699 | 113.14356 | 31379 ft | 494 kts | 252° |
| 2026-05-08 05:57 | 20.86577 | 113.10932 | 31638 ft | 494 kts | 252° |
| 2026-05-08 05:58 | 20.85441 | 113.07470 | 31876 ft | 494 kts | 252° |
| 2026-05-08 05:58 | 20.83158 | 113.00513 | 31949 ft | 494 kts | 252° |
| 2026-05-08 05:59 | 20.80928 | 112.93734 | 31958 ft | 494 kts | 252° |
| 2026-05-08 05:59 | 20.78645 | 112.86801 | 31974 ft | 495 kts | 252° |
| 2026-05-08 06:00 | 20.76355 | 112.79856 | 31975 ft | 496 kts | 252° |
| 2026-05-08 06:00 | 20.74059 | 112.72905 | 31970 ft | 496 kts | 252° |
| 2026-05-08 06:01 | 20.71760 | 112.65957 | 31973 ft | 496 kts | 252° |
| 2026-05-08 06:01 | 20.69458 | 112.59008 | 31953 ft | 496 kts | 252° |
| 2026-05-08 06:02 | 20.67157 | 112.52072 | 31959 ft | 496 kts | 252° |
| 2026-05-08 06:02 | 20.64852 | 112.45137 | 31966 ft | 495 kts | 252° |
| 2026-05-08 06:03 | 20.62549 | 112.38217 | 31967 ft | 495 kts | 252° |
| 2026-05-08 06:03 | 20.60244 | 112.31300 | 31966 ft | 494 kts | 252° |
| 2026-05-08 06:04 | 20.57940 | 112.24392 | 31951 ft | 494 kts | 252° |
| 2026-05-08 06:04 | 20.55888 | 112.17416 | 31953 ft | 492 kts | 261° |
| 2026-05-08 06:05 | 20.55251 | 112.10183 | 31964 ft | 489 kts | 272° |
| 2026-05-08 06:05 | 20.55777 | 112.02958 | 31963 ft | 489 kts | 276° |
| 2026-05-08 06:06 | 20.56402 | 111.95906 | 31967 ft | 489 kts | 276° |
| 2026-05-08 06:06 | 20.57005 | 111.88674 | 31951 ft | 490 kts | 276° |
| 2026-05-08 06:07 | 20.57577 | 111.81426 | 31961 ft | 490 kts | 275° |
| 2026-05-08 06:07 | 20.58138 | 111.74169 | 31952 ft | 491 kts | 275° |
| 2026-05-08 06:08 | 20.58698 | 111.66902 | 31961 ft | 492 kts | 275° |
| 2026-05-08 06:08 | 20.59257 | 111.59628 | 31963 ft | 492 kts | 275° |
| 2026-05-08 06:09 | 20.59815 | 111.52342 | 31964 ft | 492 kts | 275° |
| 2026-05-08 06:09 | 20.60369 | 111.45055 | 31959 ft | 493 kts | 275° |
| 2026-05-08 06:10 | 20.60921 | 111.37765 | 31956 ft | 493 kts | 275° |
| 2026-05-08 06:10 | 20.61466 | 111.30525 | 31949 ft | 493 kts | 275° |
| 2026-05-08 06:11 | 20.62011 | 111.23242 | 31961 ft | 492 kts | 275° |
| 2026-05-08 06:11 | 20.62552 | 111.15958 | 31947 ft | 492 kts | 275° |
| 2026-05-08 06:12 | 20.63091 | 111.08675 | 31961 ft | 492 kts | 275° |
| 2026-05-08 06:12 | 20.63626 | 111.01402 | 31961 ft | 492 kts | 275° |
| 2026-05-08 06:13 | 20.64015 | 110.94291 | 31941 ft | 492 kts | 268° |
| 2026-05-08 06:13 | 20.63091 | 110.87069 | 31963 ft | 492 kts | 257° |
| 2026-05-08 06:14 | 20.60924 | 110.80144 | 31959 ft | 493 kts | 250° |
| 2026-05-08 06:14 | 20.58534 | 110.73287 | 31963 ft | 493 kts | 250° |
| 2026-05-08 06:15 | 20.56190 | 110.66395 | 31949 ft | 494 kts | 250° |
| 2026-05-08 06:15 | 20.53872 | 110.59492 | 31968 ft | 495 kts | 250° |
| 2026-05-08 06:16 | 20.51442 | 110.52620 | 31955 ft | 496 kts | 245° |
| 2026-05-08 06:16 | 20.48017 | 110.46238 | 31952 ft | 497 kts | 236° |
| 2026-05-08 06:17 | 20.41487 | 110.37609 | 31953 ft | 500 kts | 231° |
| 2026-05-08 06:17 | 20.37069 | 110.31881 | 31954 ft | 501 kts | 231° |
| 2026-05-08 06:18 | 20.32704 | 110.26153 | 31955 ft | 501 kts | 232° |
| 2026-05-08 06:18 | 20.28315 | 110.20384 | 31951 ft | 502 kts | 232° |
| 2026-05-08 06:19 | 20.23960 | 110.14574 | 31952 ft | 502 kts | 232° |
| 2026-05-08 06:19 | 20.19610 | 110.08752 | 31947 ft | 502 kts | 232° |
| 2026-05-08 06:20 | 20.15255 | 110.02940 | 31944 ft | 502 kts | 232° |
| 2026-05-08 06:20 | 20.11002 | 109.97279 | 31945 ft | 502 kts | 232° |
| 2026-05-08 06:21 | 20.06643 | 109.91484 | 31942 ft | 501 kts | 232° |
| 2026-05-08 06:21 | 20.02285 | 109.85696 | 31943 ft | 501 kts | 232° |
| 2026-05-08 06:22 | 19.97933 | 109.79922 | 31927 ft | 501 kts | 232° |
| 2026-05-08 06:22 | 19.93575 | 109.74144 | 31940 ft | 501 kts | 233° |
| 2026-05-08 06:23 | 19.89214 | 109.68367 | 31938 ft | 501 kts | 232° |
| 2026-05-08 06:23 | 19.84850 | 109.62594 | 31939 ft | 501 kts | 232° |
| 2026-05-08 06:24 | 19.80484 | 109.56822 | 31941 ft | 501 kts | 233° |
| 2026-05-08 06:24 | 19.76853 | 109.52027 | 31940 ft | 501 kts | 232° |
| 2026-05-08 06:25 | 19.71740 | 109.45281 | 31941 ft | 501 kts | 232° |
| 2026-05-08 06:25 | 19.68107 | 109.40492 | 31931 ft | 502 kts | 232° |
| 2026-05-08 06:26 | 19.63729 | 109.34725 | 31942 ft | 502 kts | 232° |
| 2026-05-08 06:26 | 19.59355 | 109.28969 | 31940 ft | 502 kts | 232° |
| 2026-05-08 06:27 | 19.54965 | 109.23197 | 31942 ft | 503 kts | 232° |
| 2026-05-08 06:27 | 19.50571 | 109.17435 | 31943 ft | 503 kts | 232° |
| 2026-05-08 06:28 | 19.46134 | 109.11700 | 31949 ft | 503 kts | 232° |
| 2026-05-08 06:28 | 19.41688 | 109.05972 | 31940 ft | 504 kts | 232° |
| 2026-05-08 06:29 | 19.37233 | 109.00227 | 31944 ft | 505 kts | 232° |
| 2026-05-08 06:29 | 19.32880 | 108.94611 | 31944 ft | 506 kts | 232° |
| 2026-05-08 06:30 | 19.28410 | 108.88848 | 31944 ft | 507 kts | 232° |
| 2026-05-08 06:30 | 19.23932 | 108.83082 | 31947 ft | 507 kts | 232° |
| 2026-05-08 06:31 | 19.19490 | 108.77351 | 31942 ft | 507 kts | 232° |
| 2026-05-08 06:31 | 19.15016 | 108.71576 | 31941 ft | 507 kts | 232° |
| 2026-05-08 06:32 | 19.10545 | 108.65810 | 31939 ft | 506 kts | 232° |
| 2026-05-08 06:32 | 19.06081 | 108.60060 | 31937 ft | 506 kts | 232° |
| 2026-05-08 06:33 | 19.01619 | 108.54320 | 31938 ft | 505 kts | 232° |
| 2026-05-08 06:33 | 18.97171 | 108.48601 | 31940 ft | 504 kts | 232° |
| 2026-05-08 06:34 | 18.92716 | 108.42879 | 31944 ft | 504 kts | 232° |
| 2026-05-08 06:34 | 18.88264 | 108.37166 | 31939 ft | 504 kts | 232° |
| 2026-05-08 06:35 | 18.83806 | 108.31452 | 31934 ft | 504 kts | 232° |
| 2026-05-08 06:35 | 18.79345 | 108.25737 | 31939 ft | 505 kts | 232° |
| 2026-05-08 06:36 | 18.74875 | 108.20018 | 31937 ft | 506 kts | 232° |
| 2026-05-08 06:36 | 18.70393 | 108.14287 | 31941 ft | 507 kts | 232° |
| 2026-05-08 06:37 | 18.65901 | 108.08549 | 31940 ft | 507 kts | 232° |
| 2026-05-08 06:37 | 18.61406 | 108.02814 | 31941 ft | 508 kts | 232° |
| 2026-05-08 06:38 | 18.56985 | 107.97177 | 31945 ft | 508 kts | 232° |
| 2026-05-08 06:38 | 18.52476 | 107.91433 | 31942 ft | 508 kts | 232° |
| 2026-05-08 06:39 | 18.47966 | 107.85692 | 31941 ft | 509 kts | 232° |
| 2026-05-08 06:39 | 18.43453 | 107.79952 | 31940 ft | 509 kts | 232° |
| 2026-05-08 06:40 | 18.38936 | 107.74212 | 31944 ft | 509 kts | 231° |
| 2026-05-08 06:40 | 18.36833 | 107.71247 | 31914 ft | 504 kts | 243° |
| 2026-05-08 06:40 | 18.35542 | 107.67847 | 31946 ft | 499 kts | 259° |
| 2026-05-08 06:41 | 18.35098 | 107.64240 | 31947 ft | 497 kts | 272° |
| 2026-05-08 06:41 | 18.35474 | 107.60647 | 31951 ft | 492 kts | 284° |
| 2026-05-08 06:41 | 18.36994 | 107.53604 | 31951 ft | 496 kts | 284° |
| 2026-05-08 06:42 | 18.38503 | 107.46487 | 32009 ft | 500 kts | 283° |
| 2026-05-08 06:42 | 18.39229 | 107.42906 | 32249 ft | 499 kts | 283° |
| 2026-05-08 06:42 | 18.39938 | 107.39337 | 32591 ft | 497 kts | 282° |
| 2026-05-08 06:43 | 18.40637 | 107.35790 | 32971 ft | 493 kts | 282° |
| 2026-05-08 06:43 | 18.41330 | 107.32257 | 33263 ft | 492 kts | 282° |
| 2026-05-08 06:43 | 18.42023 | 107.28727 | 33483 ft | 493 kts | 282° |
| 2026-05-08 06:43 | 18.42718 | 107.25190 | 33692 ft | 493 kts | 282° |
| 2026-05-08 06:44 | 18.43413 | 107.21653 | 33859 ft | 493 kts | 282° |
| 2026-05-08 06:44 | 18.44108 | 107.18118 | 33892 ft | 493 kts | 282° |
| 2026-05-08 06:44 | 18.45496 | 107.11051 | 33938 ft | 493 kts | 282° |
| 2026-05-08 06:45 | 18.46879 | 107.03989 | 33952 ft | 492 kts | 282° |
| 2026-05-08 06:45 | 18.48218 | 106.97116 | 33944 ft | 492 kts | 282° |
| 2026-05-08 06:46 | 18.49595 | 106.90015 | 33948 ft | 491 kts | 282° |
| 2026-05-08 06:46 | 18.50950 | 106.83016 | 33944 ft | 491 kts | 282° |
| 2026-05-08 06:47 | 18.52313 | 106.75968 | 33949 ft | 491 kts | 282° |
| 2026-05-08 06:47 | 18.53672 | 106.68923 | 33936 ft | 491 kts | 282° |
| 2026-05-08 06:48 | 18.55028 | 106.61879 | 33947 ft | 490 kts | 282° |
| 2026-05-08 06:48 | 18.56391 | 106.54836 | 33945 ft | 490 kts | 282° |
| 2026-05-08 06:49 | 18.57779 | 106.47796 | 33949 ft | 490 kts | 282° |
| 2026-05-08 06:49 | 18.59164 | 106.40759 | 33949 ft | 490 kts | 282° |
| 2026-05-08 06:50 | 18.60541 | 106.33725 | 33943 ft | 491 kts | 282° |
| 2026-05-08 06:50 | 18.61917 | 106.26678 | 33948 ft | 491 kts | 282° |
| 2026-05-08 06:51 | 18.63291 | 106.19626 | 33948 ft | 491 kts | 282° |
| 2026-05-08 06:51 | 18.64664 | 106.12565 | 33955 ft | 492 kts | 282° |
| 2026-05-08 06:52 | 18.66022 | 106.05542 | 33947 ft | 492 kts | 282° |
| 2026-05-08 06:52 | 18.67342 | 105.98639 | 33949 ft | 492 kts | 282° |
| 2026-05-08 06:53 | 18.68684 | 105.91607 | 33950 ft | 493 kts | 282° |
| 2026-05-08 06:53 | 18.70036 | 105.84515 | 33955 ft | 493 kts | 282° |
| 2026-05-08 06:54 | 18.71385 | 105.77422 | 33951 ft | 494 kts | 282° |
| 2026-05-08 06:54 | 18.72734 | 105.70316 | 33950 ft | 494 kts | 282° |
| 2026-05-08 06:55 | 18.74488 | 105.63325 | 33948 ft | 493 kts | 290° |
| 2026-05-08 06:55 | 18.76859 | 105.56535 | 33955 ft | 493 kts | 291° |
| 2026-05-08 06:56 | 18.79251 | 105.49744 | 33951 ft | 493 kts | 291° |
| 2026-05-08 06:56 | 18.81606 | 105.42948 | 33956 ft | 493 kts | 290° |
| 2026-05-08 06:57 | 18.83937 | 105.36151 | 33950 ft | 492 kts | 290° |
| 2026-05-08 06:57 | 18.86254 | 105.29371 | 33964 ft | 490 kts | 290° |
| 2026-05-08 06:58 | 18.88567 | 105.22598 | 33960 ft | 490 kts | 290° |
| 2026-05-08 06:58 | 18.90876 | 105.15835 | 33968 ft | 489 kts | 290° |
| 2026-05-08 06:59 | 18.93181 | 105.09075 | 33967 ft | 489 kts | 290° |
| 2026-05-08 06:59 | 18.95485 | 105.02306 | 33978 ft | 490 kts | 290° |
| 2026-05-08 07:00 | 18.97723 | 104.95725 | 33977 ft | 491 kts | 290° |
| 2026-05-08 07:00 | 19.00025 | 104.88946 | 33989 ft | 490 kts | 290° |
| 2026-05-08 07:01 | 19.02315 | 104.82191 | 33986 ft | 486 kts | 290° |
| 2026-05-08 07:01 | 19.04589 | 104.75476 | 33986 ft | 484 kts | 290° |
| 2026-05-08 07:02 | 19.06855 | 104.68775 | 33976 ft | 484 kts | 290° |
| 2026-05-08 07:02 | 19.09120 | 104.62068 | 33987 ft | 485 kts | 290° |
| 2026-05-08 07:03 | 19.11387 | 104.55347 | 33988 ft | 486 kts | 289° |
| 2026-05-08 07:03 | 19.13648 | 104.48636 | 33987 ft | 488 kts | 289° |